Fairmont, Missouri
Current Conditions -  °F | °C
As of 12:55 AM on Thursday 27 Nov 2014 (Local Time) from KEOK Reporting Station
Haze Haze  
Wind Chill: 21°   Ceiling: 1300
Heat Index: 28°   Visibility: 6mi
Dew Point: 27°   Wind: 7mph
Humidity: 93%   Direction: 330°NNW
Pressure: 30.31"   Gusts: NA
Location:  40.3399°N, 91.8916°W
Report Text: KEOK 270655Z AUTO 33006KT 6SM BR OVC013 M02/M03 A3031 RMK AO2
Loading
Personal Weather Stations






























Interactive Weather Map New forecast layout! Learn more

10-Day Weather Forecast

Advertisements
Track Severe Weather on mobile